< < Back
Terminal Aerodrome Forecast


Current Version              Previous Versions:   1  2  3  4  5  6  7  8  9  

Terminal Aerodrome Forecast

211
FTUS42 KCHS 292329
TAFSAV
TAF
KSAV 292329Z 3000/3024 11007KT P6SM FEW035 SCT250
     FM300200 VRB02KT P6SM FEW250
     FM300800 00000KT 6SM BR SCT012
     FM301400 03005KT P6SM SCT035
     FM301800 13007KT P6SM SCT045=

Latest METAR

233
SAUS80 KWBC 301000 RRA
MTRSAV
METAR KSAV 300953Z 00000KT 10SM FEW250 24/22 A2993 RMK AO2 SLP134 FIRST
AUGMENTED OBSERVATION T02440222 $


USA.gov is the U.S. government's official web portal to all federal, state and local government web resources and services.